CYVRCYCD [113]

Details From CYVR - Vancouver Intl
To CYCD - Nanaimo
Flight Number 113
Tags decoded Maestaru
Created
Modified
Stats Distance 37 nm / 68 km
Max Altitude 0 ft / 0 m
Waypoints 5
Social Downloads 2
Likes 1
Share VATSIM

Download

Looking for another format? Having issues loading an existing format? Contact us
Advertisement - Login to hide

Notes

Requested: CYVR TAVPI BUBUL VOLIM APLAG CYCD

Route

CYVR TAVPI BUBUL VOLIM CYCD

ID Type Via Altitude Latitude Longitude Leg Dist Tot Dist Heading (true) Name
O CYVR APT - 0 ft / 0 m 49.19233˚ -123.18799˚ - 0 nm - Vancouver Intl
TAVPI FIX - 0 ft / 0 m 49.20067˚ -123.30133˚ 4 nm 4 nm 276° / 276° -
BUBUL FIX - 0 ft / 0 m 49.22950˚ -123.55850˚ 10 nm 14 nm 280° / 280° -
VOLIM FIX - 0 ft / 0 m 49.25550˚ -123.79067˚ 9 nm 23 nm 280° / 280° -
O CYCD APT - 0 ft / 0 m 49.05237˚ -123.87011˚ 12 nm 36 nm 194° / 194° Nanaimo

Altitude Profile

Advertisement - Login to hide

CYVR

Details ICAO CYVR (YVR)
Name Vancouver Intl
Region Canada
Timezone America/Vancouver (UTC-7.0)
Stats Elevation 14 ft / 4 m (AMSL)
Location 49.192331° -123.187993°
Runways 4
Magnetic Variation 16.196° E

METAR

Not found

TAF

TAF CYVR 280238Z 2803/2906 16008KT P6SM SKC BECMG 2803/2805 10010KT FM281200 10010KT P6SM FEW025 SCT080 BECMG 2820/2822 25010KT FM290000 28012KT P6SM BKN060 RMK NXT FCST BY 280600Z

Decode

Departure Runways

ID Width Length Bearing (true) Bearing (mag) Surface Threshold Offset Overrun Length
08 75 ft / 23 m 3,497 ft / 1,066 m 100.01° 83.81° Concrete 0 ft / 0 m 0 ft / 0 m
08L 200 ft / 61 m 9,910 ft / 3,021 m 99.80° 83.60° Concrete 0 ft / 0 m 0 ft / 0 m
08R 200 ft / 61 m 11,491 ft / 3,502 m 99.94° 83.74° Asphalt 0 ft / 0 m 0 ft / 0 m
12 200 ft / 61 m 7,291 ft / 2,222 m 141.91° 125.71° Asphalt 0 ft / 0 m 0 ft / 0 m
26 75 ft / 23 m 3,497 ft / 1,066 m 280.02° 263.82° Concrete 0 ft / 0 m 0 ft / 0 m
26L 200 ft / 61 m 11,491 ft / 3,502 m 279.97° 263.77° Asphalt 0 ft / 0 m 0 ft / 0 m
26R 200 ft / 61 m 9,910 ft / 3,021 m 279.83° 263.63° Concrete 0 ft / 0 m 0 ft / 0 m
30 200 ft / 61 m 7,291 ft / 2,222 m 321.93° 305.73° Asphalt 0 ft / 0 m 0 ft / 0 m

CYCD

Details ICAO CYCD (YCD)
Name Nanaimo
Region Canada
Timezone America/Vancouver (UTC-7.0)
Stats Elevation 93 ft / 28 m (AMSL)
Location 49.052367° -123.870111°
Runways 1
Magnetic Variation 16.272° E

METAR

Not found

TAF

TAF CYCD 272338Z 2800/2804 09008KT P6SM FEW060 RMK NXT FCST WILL BE ISSUED AT 281445Z

Decode

Destination Runways

ID Width Length Bearing (true) Bearing (mag) Surface Threshold Offset Overrun Length
16 200 ft / 61 m 5,018 ft / 1,529 m 180.75° 164.48° Asphalt 0 ft / 0 m 0 ft / 0 m
34 200 ft / 61 m 5,018 ft / 1,529 m 0.75° 344.48° Asphalt 1,001 ft / 305 m 0 ft / 0 m

Popular Alternatives